Terminal Aerodrome Forecast
Issued by NWS

Home | Current Version | Previous Version | Text Only | Print | Product List | Glossary On
Versions: 1 2 3 4 5 6 7 8 9 10 11 12 13 14 15 16 17
000
FTUS45 KPSR 291700 AAA
TAFBLH
TAF AMD
KBLH 291741Z 2918/3018 VRB05KT P6SM BKN160 OVC200
     FM300200 27005KT P6SM VCSH SCT040 OVC080
      TEMPO 3006/3008 -SHRA SCT040 OVC060
     FM300800 VRB05KT P6SM -RA SCT030 OVC040
      TEMPO 3010/3014 -RA SCT025 OVC030
     FM301400 VRB05KT P6SM -RA SCT025 OVC030
      TEMPO 3015/3018 5SM RA BKN025 OVC030=

USA.gov is the U.S. government's official web portal to all federal, state and local government web resources and services.